sensor_id;sensor_type;location;lat;lon;timestamp;pressure;altitude;pressure_sealevel;temperature;humidity
52935;BME280;38802;50.198;19.796;2023-02-21T00:02:58;95392.53;;;7.17;79.07
52935;BME280;38802;50.198;19.796;2023-02-21T00:05:45;95400.74;;;7.22;78.90
52935;BME280;38802;50.198;19.796;2023-02-21T00:08:32;95393.62;;;7.21;79.16
52935;BME280;38802;50.198;19.796;2023-02-21T00:11:18;95388.83;;;7.22;78.93
52935;BME280;38802;50.198;19.796;2023-02-21T00:14:05;95395.23;;;7.16;79.03
52935;BME280;38802;50.198;19.796;2023-02-21T00:16:52;95389.90;;;7.16;79.40
52935;BME280;38802;50.198;19.796;2023-02-21T00:19:39;95389.89;;;7.14;79.57
52935;BME280;38802;50.198;19.796;2023-02-21T00:22:26;95390.43;;;7.09;79.73
52935;BME280;38802;50.198;19.796;2023-02-21T00:25:13;95385.40;;;7.07;79.99
52935;BME280;38802;50.198;19.796;2023-02-21T00:28:00;95389.27;;;7.07;80.30
52935;BME280;38802;50.198;19.796;2023-02-21T00:30:47;95381.48;;;7.01;80.92
52935;BME280;38802;50.198;19.796;2023-02-21T00:33:35;95386.69;;;6.94;81.63
52935;BME280;38802;50.198;19.796;2023-02-21T00:36:22;95396.30;;;6.88;81.97
52935;BME280;38802;50.198;19.796;2023-02-21T00:39:09;95388.99;;;6.84;82.37
52935;BME280;38802;50.198;19.796;2023-02-21T00:41:56;95394.64;;;6.81;82.40
52935;BME280;38802;50.198;19.796;2023-02-21T00:44:42;95384.62;;;6.83;82.69
52935;BME280;38802;50.198;19.796;2023-02-21T00:47:29;95385.89;;;6.82;82.61
52935;BME280;38802;50.198;19.796;2023-02-21T00:50:16;95385.66;;;6.79;82.82
52935;BME280;38802;50.198;19.796;2023-02-21T00:53:02;95378.69;;;6.81;82.60
52935;BME280;38802;50.198;19.796;2023-02-21T00:55:49;95382.95;;;6.85;82.54
52935;BME280;38802;50.198;19.796;2023-02-21T00:58:35;95375.55;;;6.86;82.24
52935;BME280;38802;50.198;19.796;2023-02-21T01:01:22;95378.67;;;6.86;82.05
52935;BME280;38802;50.198;19.796;2023-02-21T01:04:09;95378.20;;;6.85;81.76
52935;BME280;38802;50.198;19.796;2023-02-21T01:06:55;95374.38;;;6.84;81.78
52935;BME280;38802;50.198;19.796;2023-02-21T01:09:42;95376.17;;;6.87;81.47
52935;BME280;38802;50.198;19.796;2023-02-21T01:12:29;95377.46;;;6.88;81.29
52935;BME280;38802;50.198;19.796;2023-02-21T01:15:17;95372.05;;;6.89;80.97
52935;BME280;38802;50.198;19.796;2023-02-21T01:18:04;95382.92;;;6.89;80.87
52935;BME280;38802;50.198;19.796;2023-02-21T01:20:50;95382.31;;;6.90;80.71
52935;BME280;38802;50.198;19.796;2023-02-21T01:23:37;95376.25;;;6.90;80.91
52935;BME280;38802;50.198;19.796;2023-02-21T01:26:24;95375.26;;;6.88;80.87
52935;BME280;38802;50.198;19.796;2023-02-21T01:29:11;95377.31;;;6.86;81.07
52935;BME280;38802;50.198;19.796;2023-02-21T01:31:59;95376.59;;;6.88;81.38
52935;BME280;38802;50.198;19.796;2023-02-21T01:34:47;95373.19;;;6.88;81.34
52935;BME280;38802;50.198;19.796;2023-02-21T01:37:34;95376.84;;;6.85;81.68
52935;BME280;38802;50.198;19.796;2023-02-21T01:40:21;95375.75;;;6.86;81.74
52935;BME280;38802;50.198;19.796;2023-02-21T01:43:13;95375.31;;;6.81;82.07
52935;BME280;38802;50.198;19.796;2023-02-21T01:46:01;95362.60;;;6.84;82.13
52935;BME280;38802;50.198;19.796;2023-02-21T01:48:50;95364.23;;;6.83;82.26
52935;BME280;38802;50.198;19.796;2023-02-21T01:51:39;95368.83;;;6.78;82.51
52935;BME280;38802;50.198;19.796;2023-02-21T01:54:31;95372.45;;;6.78;82.69
52935;BME280;38802;50.198;19.796;2023-02-21T01:57:19;95373.35;;;6.77;82.88
52935;BME280;38802;50.198;19.796;2023-02-21T02:00:10;95374.52;;;6.74;83.19
52935;BME280;38802;50.198;19.796;2023-02-21T02:03:00;95376.13;;;6.67;83.41
52935;BME280;38802;50.198;19.796;2023-02-21T02:05:50;95369.70;;;6.65;83.75
52935;BME280;38802;50.198;19.796;2023-02-21T02:08:39;95374.52;;;6.61;83.98
52935;BME280;38802;50.198;19.796;2023-02-21T02:14:48;95364.17;;;6.52;84.65
52935;BME280;38802;50.198;19.796;2023-02-21T02:17:42;95357.27;;;6.48;84.94
52935;BME280;38802;50.198;19.796;2023-02-21T02:20:20;95361.23;;;6.47;85.11
52935;BME280;38802;50.198;19.796;2023-02-21T02:40:41;95361.81;;;6.30;88.42
52935;BME280;38802;50.198;19.796;2023-02-21T02:43:34;95358.73;;;6.21;88.68
52935;BME280;38802;50.198;19.796;2023-02-21T02:46:37;95360.95;;;6.19;89.44
52935;BME280;38802;50.198;19.796;2023-02-21T02:49:13;95357.35;;;6.12;89.70
52935;BME280;38802;50.198;19.796;2023-02-21T02:51:43;95358.52;;;6.13;90.29
52935;BME280;38802;50.198;19.796;2023-02-21T02:54:12;95356.39;;;6.11;90.82
52935;BME280;38802;50.198;19.796;2023-02-21T02:56:40;95355.67;;;6.05;90.99
52935;BME280;38802;50.198;19.796;2023-02-21T02:59:22;95354.37;;;6.04;91.30
52935;BME280;38802;50.198;19.796;2023-02-21T03:02:19;95357.04;;;6.01;91.53
52935;BME280;38802;50.198;19.796;2023-02-21T03:10:36;95355.88;;;5.99;92.68
52935;BME280;38802;50.198;19.796;2023-02-21T03:13:21;95360.23;;;5.97;93.03
52935;BME280;38802;50.198;19.796;2023-02-21T03:15:58;95360.34;;;5.93;93.34
52935;BME280;38802;50.198;19.796;2023-02-21T03:18:40;95358.10;;;5.93;93.66
52935;BME280;38802;50.198;19.796;2023-02-21T03:21:14;95354.93;;;5.92;93.73
52935;BME280;38802;50.198;19.796;2023-02-21T03:23:45;95354.44;;;5.87;93.92
52935;BME280;38802;50.198;19.796;2023-02-21T03:26:16;95348.91;;;5.89;94.32
52935;BME280;38802;50.198;19.796;2023-02-21T03:28:49;95350.34;;;5.91;94.51
52935;BME280;38802;50.198;19.796;2023-02-21T03:31:20;95344.17;;;5.88;94.47
52935;BME280;38802;50.198;19.796;2023-02-21T03:33:52;95344.65;;;5.89;94.85
52935;BME280;38802;50.198;19.796;2023-02-21T03:36:21;95354.23;;;5.87;94.94
52935;BME280;38802;50.198;19.796;2023-02-21T03:38:49;95345.39;;;5.88;95.25
52935;BME280;38802;50.198;19.796;2023-02-21T03:41:18;95351.05;;;5.86;95.13
52935;BME280;38802;50.198;19.796;2023-02-21T03:43:46;95347.41;;;5.89;95.41
52935;BME280;38802;50.198;19.796;2023-02-21T03:46:14;95341.61;;;5.88;95.48
52935;BME280;38802;50.198;19.796;2023-02-21T03:48:42;95341.59;;;5.88;95.61
52935;BME280;38802;50.198;19.796;2023-02-21T03:51:19;95339.48;;;5.91;95.76
52935;BME280;38802;50.198;19.796;2023-02-21T03:53:47;95340.02;;;5.93;95.91
52935;BME280;38802;50.198;19.796;2023-02-21T03:56:17;95339.89;;;5.92;95.98
52935;BME280;38802;50.198;19.796;2023-02-21T03:59:04;95344.81;;;5.91;96.28
52935;BME280;38802;50.198;19.796;2023-02-21T04:01:32;95343.11;;;5.86;95.97
52935;BME280;38802;50.198;19.796;2023-02-21T04:04:01;95339.14;;;5.86;96.22
52935;BME280;38802;50.198;19.796;2023-02-21T04:06:29;95334.92;;;5.90;96.44
52935;BME280;38802;50.198;19.796;2023-02-21T04:08:58;95343.13;;;5.91;96.51
52935;BME280;38802;50.198;19.796;2023-02-21T04:11:27;95347.50;;;5.92;96.66
52935;BME280;38802;50.198;19.796;2023-02-21T04:13:55;95349.43;;;5.94;96.80
52935;BME280;38802;50.198;19.796;2023-02-21T04:16:23;95352.52;;;5.89;96.75
52935;BME280;38802;50.198;19.796;2023-02-21T04:18:52;95342.36;;;5.87;97.04
52935;BME280;38802;50.198;19.796;2023-02-21T04:21:20;95341.31;;;5.90;97.04
52935;BME280;38802;50.198;19.796;2023-02-21T04:23:50;95343.98;;;5.89;97.18
52935;BME280;38802;50.198;19.796;2023-02-21T04:26:18;95348.13;;;5.88;97.13
52935;BME280;38802;50.198;19.796;2023-02-21T04:28:50;95352.08;;;5.89;97.35
52935;BME280;38802;50.198;19.796;2023-02-21T04:31:19;95348.83;;;5.91;97.45
52935;BME280;38802;50.198;19.796;2023-02-21T04:33:48;95358.44;;;5.89;97.53
52935;BME280;38802;50.198;19.796;2023-02-21T04:36:30;95352.36;;;5.89;97.52
52935;BME280;38802;50.198;19.796;2023-02-21T04:38:58;95342.71;;;5.85;97.67
52935;BME280;38802;50.198;19.796;2023-02-21T04:41:26;95355.29;;;5.85;97.62
52935;BME280;38802;50.198;19.796;2023-02-21T04:43:55;95345.79;;;5.85;97.86
52935;BME280;38802;50.198;19.796;2023-02-21T04:46:23;95348.95;;;5.87;97.90
52935;BME280;38802;50.198;19.796;2023-02-21T04:48:52;95356.30;;;5.83;97.96
52935;BME280;38802;50.198;19.796;2023-02-21T04:51:22;95366.29;;;5.83;98.06
52935;BME280;38802;50.198;19.796;2023-02-21T04:53:52;95355.36;;;5.84;98.09
52935;BME280;38802;50.198;19.796;2023-02-21T04:56:23;95352.30;;;5.86;98.25
52935;BME280;38802;50.198;19.796;2023-02-21T04:58:52;95349.83;;;5.86;98.28
52935;BME280;38802;50.198;19.796;2023-02-21T05:01:20;95361.58;;;5.86;98.29
52935;BME280;38802;50.198;19.796;2023-02-21T05:03:49;95356.50;;;5.85;98.27
52935;BME280;38802;50.198;19.796;2023-02-21T05:06:25;95358.91;;;5.83;98.41
52935;BME280;38802;50.198;19.796;2023-02-21T05:08:54;95348.37;;;5.85;98.48
52935;BME280;38802;50.198;19.796;2023-02-21T05:11:23;95358.87;;;5.81;98.30
52935;BME280;38802;50.198;19.796;2023-02-21T05:13:52;95347.73;;;5.85;98.54
52935;BME280;38802;50.198;19.796;2023-02-21T05:16:20;95345.67;;;5.85;98.52
52935;BME280;38802;50.198;19.796;2023-02-21T05:18:48;95347.59;;;5.82;98.53
52935;BME280;38802;50.198;19.796;2023-02-21T05:21:17;95338.27;;;5.82;98.65
52935;BME280;38802;50.198;19.796;2023-02-21T05:23:46;95344.42;;;5.83;98.57
52935;BME280;38802;50.198;19.796;2023-02-21T05:26:26;95336.86;;;5.82;98.67
52935;BME280;38802;50.198;19.796;2023-02-21T05:28:57;95333.05;;;5.78;98.68
52935;BME280;38802;50.198;19.796;2023-02-21T05:31:26;95329.48;;;5.78;98.75
52935;BME280;38802;50.198;19.796;2023-02-21T05:33:54;95329.60;;;5.81;98.97
52935;BME280;38802;50.198;19.796;2023-02-21T05:36:22;95332.67;;;5.81;98.76
52935;BME280;38802;50.198;19.796;2023-02-21T05:38:54;95333.65;;;5.80;98.97
52935;BME280;38802;50.198;19.796;2023-02-21T05:41:23;95328.55;;;5.81;98.98
52935;BME280;38802;50.198;19.796;2023-02-21T05:43:51;95332.89;;;5.81;99.05
52935;BME280;38802;50.198;19.796;2023-02-21T05:46:24;95334.82;;;5.82;99.08
52935;BME280;38802;50.198;19.796;2023-02-21T05:48:54;95336.74;;;5.80;99.20
52935;BME280;38802;50.198;19.796;2023-02-21T05:51:22;95342.04;;;5.78;99.25
52935;BME280;38802;50.198;19.796;2023-02-21T05:53:51;95348.05;;;5.78;99.36
52935;BME280;38802;50.198;19.796;2023-02-21T05:56:19;95349.70;;;5.79;99.38
52935;BME280;38802;50.198;19.796;2023-02-21T05:58:48;95350.84;;;5.82;99.49
52935;BME280;38802;50.198;19.796;2023-02-21T06:01:16;95347.95;;;5.82;99.52
52935;BME280;38802;50.198;19.796;2023-02-21T06:03:44;95343.95;;;5.84;99.44
52935;BME280;38802;50.198;19.796;2023-02-21T06:06:14;95343.23;;;5.83;99.37
52935;BME280;38802;50.198;19.796;2023-02-21T06:08:47;95354.56;;;5.81;99.46
52935;BME280;38802;50.198;19.796;2023-02-21T06:11:22;95359.00;;;5.84;99.39
52935;BME280;38802;50.198;19.796;2023-02-21T06:13:51;95364.97;;;5.85;99.37
52935;BME280;38802;50.198;19.796;2023-02-21T06:16:20;95362.79;;;5.84;99.21
52935;BME280;38802;50.198;19.796;2023-02-21T06:18:52;95362.05;;;5.86;99.33
52935;BME280;38802;50.198;19.796;2023-02-21T06:21:21;95368.96;;;5.88;99.14
52935;BME280;38802;50.198;19.796;2023-02-21T06:23:50;95367.77;;;5.88;99.18
52935;BME280;38802;50.198;19.796;2023-02-21T06:26:19;95380.77;;;5.88;99.07
52935;BME280;38802;50.198;19.796;2023-02-21T06:28:47;95381.82;;;5.90;99.12
52935;BME280;38802;50.198;19.796;2023-02-21T06:31:18;95378.08;;;5.91;99.20
52935;BME280;38802;50.198;19.796;2023-02-21T06:33:47;95382.88;;;5.89;98.90
52935;BME280;38802;50.198;19.796;2023-02-21T06:36:21;95387.14;;;5.90;99.02
52935;BME280;38802;50.198;19.796;2023-02-21T06:38:51;95387.73;;;5.91;98.85
52935;BME280;38802;50.198;19.796;2023-02-21T06:41:24;95390.34;;;5.93;98.86
52935;BME280;38802;50.198;19.796;2023-02-21T06:43:53;95383.75;;;5.94;98.97
52935;BME280;38802;50.198;19.796;2023-02-21T06:46:24;95377.23;;;5.95;98.83
52935;BME280;38802;50.198;19.796;2023-02-21T06:48:53;95374.80;;;5.96;98.71
52935;BME280;38802;50.198;19.796;2023-02-21T06:51:21;95386.19;;;5.96;98.61
52935;BME280;38802;50.198;19.796;2023-02-21T06:53:57;95387.71;;;5.98;98.72
52935;BME280;38802;50.198;19.796;2023-02-21T06:56:26;95389.84;;;5.97;98.79
52935;BME280;38802;50.198;19.796;2023-02-21T06:58:54;95392.56;;;5.96;98.77
52935;BME280;38802;50.198;19.796;2023-02-21T07:01:25;95385.52;;;5.95;98.81
52935;BME280;38802;50.198;19.796;2023-02-21T07:03:56;95383.37;;;5.99;99.00
52935;BME280;38802;50.198;19.796;2023-02-21T07:06:24;95383.63;;;5.97;99.04
52935;BME280;38802;50.198;19.796;2023-02-21T07:08:56;95394.16;;;6.00;99.09
52935;BME280;38802;50.198;19.796;2023-02-21T07:11:24;95394.33;;;5.97;99.08
52935;BME280;38802;50.198;19.796;2023-02-21T07:13:53;95389.92;;;5.98;99.15
52935;BME280;38802;50.198;19.796;2023-02-21T07:16:23;95395.40;;;6.02;99.22
52935;BME280;38802;50.198;19.796;2023-02-21T07:18:52;95400.43;;;6.06;98.97
52935;BME280;38802;50.198;19.796;2023-02-21T07:21:20;95406.97;;;6.08;98.75
52935;BME280;38802;50.198;19.796;2023-02-21T07:23:49;95399.18;;;6.09;98.80
52935;BME280;38802;50.198;19.796;2023-02-21T07:26:17;95412.34;;;6.12;98.59
52935;BME280;38802;50.198;19.796;2023-02-21T07:28:49;95415.31;;;6.12;98.44
52935;BME280;38802;50.198;19.796;2023-02-21T07:31:17;95415.67;;;6.14;98.48
52935;BME280;38802;50.198;19.796;2023-02-21T07:33:47;95409.90;;;6.17;98.50
52935;BME280;38802;50.198;19.796;2023-02-21T07:36:15;95415.63;;;6.19;98.15
52935;BME280;38802;50.198;19.796;2023-02-21T07:38:44;95404.83;;;6.20;98.27
52935;BME280;38802;50.198;19.796;2023-02-21T07:41:14;95407.23;;;6.25;98.32
52935;BME280;38802;50.198;19.796;2023-02-21T07:43:45;95402.19;;;6.25;98.19
52935;BME280;38802;50.198;19.796;2023-02-21T07:46:15;95410.14;;;6.27;98.22
52935;BME280;38802;50.198;19.796;2023-02-21T07:48:44;95404.05;;;6.28;98.00
52935;BME280;38802;50.198;19.796;2023-02-21T07:51:12;95402.14;;;6.28;98.23
52935;BME280;38802;50.198;19.796;2023-02-21T07:53:41;95405.45;;;6.30;97.95
52935;BME280;38802;50.198;19.796;2023-02-21T07:56:09;95399.01;;;6.33;97.92
52935;BME280;38802;50.198;19.796;2023-02-21T07:58:38;95416.98;;;6.30;98.09
52935;BME280;38802;50.198;19.796;2023-02-21T08:01:06;95410.41;;;6.33;98.09
52935;BME280;38802;50.198;19.796;2023-02-21T08:03:35;95415.04;;;6.31;98.01
52935;BME280;38802;50.198;19.796;2023-02-21T08:06:04;95416.44;;;6.26;98.09
52935;BME280;38802;50.198;19.796;2023-02-21T08:08:32;95417.01;;;6.27;98.14
52935;BME280;38802;50.198;19.796;2023-02-21T08:11:01;95415.17;;;6.27;98.21
52935;BME280;38802;50.198;19.796;2023-02-21T08:13:29;95422.65;;;6.26;98.11
52935;BME280;38802;50.198;19.796;2023-02-21T08:15:57;95423.69;;;6.28;98.05
52935;BME280;38802;50.198;19.796;2023-02-21T08:18:25;95427.50;;;6.28;98.12
52935;BME280;38802;50.198;19.796;2023-02-21T08:20:54;95424.88;;;6.31;98.05
52935;BME280;38802;50.198;19.796;2023-02-21T08:23:24;95428.51;;;6.26;98.00
52935;BME280;38802;50.198;19.796;2023-02-21T08:25:52;95427.35;;;6.27;98.20
52935;BME280;38802;50.198;19.796;2023-02-21T08:28:20;95434.70;;;6.24;98.01
52935;BME280;38802;50.198;19.796;2023-02-21T08:30:48;95433.23;;;6.25;97.94
52935;BME280;38802;50.198;19.796;2023-02-21T08:33:16;95448.88;;;6.21;98.19
52935;BME280;38802;50.198;19.796;2023-02-21T08:35:44;95445.95;;;6.21;98.24
52935;BME280;38802;50.198;19.796;2023-02-21T08:38:13;95454.71;;;6.24;98.48
52935;BME280;38802;50.198;19.796;2023-02-21T08:40:41;95457.48;;;6.26;98.45
52935;BME280;38802;50.198;19.796;2023-02-21T08:43:09;95449.11;;;6.27;98.49
52935;BME280;38802;50.198;19.796;2023-02-21T08:45:37;95450.47;;;6.30;98.48
52935;BME280;38802;50.198;19.796;2023-02-21T08:48:05;95451.27;;;6.28;98.43
52935;BME280;38802;50.198;19.796;2023-02-21T08:50:33;95453.84;;;6.28;98.56
52935;BME280;38802;50.198;19.796;2023-02-21T08:53:01;95451.42;;;6.26;98.76
52935;BME280;38802;50.198;19.796;2023-02-21T08:55:29;95453.56;;;6.27;98.62
52935;BME280;38802;50.198;19.796;2023-02-21T08:57:57;95449.75;;;6.30;98.71
52935;BME280;38802;50.198;19.796;2023-02-21T09:00:26;95452.40;;;6.32;98.66
52935;BME280;38802;50.198;19.796;2023-02-21T09:02:56;95458.29;;;6.34;98.50
52935;BME280;38802;50.198;19.796;2023-02-21T09:05:28;95455.83;;;6.36;98.59
52935;BME280;38802;50.198;19.796;2023-02-21T09:07:59;95463.61;;;6.40;98.73
52935;BME280;38802;50.198;19.796;2023-02-21T09:10:30;95466.23;;;6.46;98.81
52935;BME280;38802;50.198;19.796;2023-02-21T09:13:02;95455.82;;;6.56;98.81
52935;BME280;38802;50.198;19.796;2023-02-21T09:15:30;95461.58;;;6.60;98.46
52935;BME280;38802;50.198;19.796;2023-02-21T09:17:59;95471.30;;;6.66;98.78
52935;BME280;38802;50.198;19.796;2023-02-21T09:20:28;95472.98;;;6.75;98.56
52935;BME280;38802;50.198;19.796;2023-02-21T09:22:56;95475.02;;;6.75;98.33
52935;BME280;38802;50.198;19.796;2023-02-21T09:25:24;95482.71;;;6.70;98.50
52935;BME280;38802;50.198;19.796;2023-02-21T09:27:53;95480.83;;;6.67;98.37
52935;BME280;38802;50.198;19.796;2023-02-21T09:30:23;95481.95;;;6.64;98.09
52935;BME280;38802;50.198;19.796;2023-02-21T09:32:55;95482.52;;;6.68;98.10
52935;BME280;38802;50.198;19.796;2023-02-21T09:35:23;95485.46;;;6.72;97.92
52935;BME280;38802;50.198;19.796;2023-02-21T09:37:51;95488.64;;;6.69;97.95
52935;BME280;38802;50.198;19.796;2023-02-21T09:42:52;95485.26;;;6.77;97.85
52935;BME280;38802;50.198;19.796;2023-02-21T09:45:22;95486.37;;;6.84;97.97
52935;BME280;38802;50.198;19.796;2023-02-21T09:47:53;95482.79;;;6.92;97.65
52935;BME280;38802;50.198;19.796;2023-02-21T09:50:26;95488.55;;;6.94;97.67
52935;BME280;38802;50.198;19.796;2023-02-21T09:52:58;95488.77;;;7.00;97.26
52935;BME280;38802;50.198;19.796;2023-02-21T09:57:58;95498.15;;;7.00;96.36
52935;BME280;38802;50.198;19.796;2023-02-21T10:00:33;95513.20;;;6.92;96.41
52935;BME280;38802;50.198;19.796;2023-02-21T10:12:04;95516.98;;;7.14;96.51
52935;BME280;38802;50.198;19.796;2023-02-21T10:17:52;95508.19;;;7.35;95.40
52935;BME280;38802;50.198;19.796;2023-02-21T10:20:37;95519.10;;;7.37;95.03
52935;BME280;38802;50.198;19.796;2023-02-21T10:23:45;95522.56;;;7.37;94.70
52935;BME280;38802;50.198;19.796;2023-02-21T10:26:24;95515.66;;;7.42;94.57
52935;BME280;38802;50.198;19.796;2023-02-21T10:28:54;95513.75;;;7.50;94.43
52935;BME280;38802;50.198;19.796;2023-02-21T10:31:28;95509.81;;;7.60;94.45
52935;BME280;38802;50.198;19.796;2023-02-21T10:33:57;95509.02;;;7.72;93.97
52935;BME280;38802;50.198;19.796;2023-02-21T10:36:27;95503.22;;;7.83;93.55
52935;BME280;38802;50.198;19.796;2023-02-21T10:38:58;95513.34;;;7.86;92.42
52935;BME280;38802;50.198;19.796;2023-02-21T10:41:34;95511.29;;;7.95;91.23
52935;BME280;38802;50.198;19.796;2023-02-21T10:44:18;95521.67;;;8.05;90.43
52935;BME280;38802;50.198;19.796;2023-02-21T10:49:49;95531.98;;;8.02;89.67
52935;BME280;38802;50.198;19.796;2023-02-21T10:52:19;95535.83;;;7.93;89.48
52935;BME280;38802;50.198;19.796;2023-02-21T10:55:04;95531.14;;;7.82;89.93
52935;BME280;38802;50.198;19.796;2023-02-21T10:57:42;95540.61;;;7.72;90.32
52935;BME280;38802;50.198;19.796;2023-02-21T11:02:54;95549.75;;;7.47;91.15
52935;BME280;38802;50.198;19.796;2023-02-21T11:05:24;95548.05;;;7.34;91.62
52935;BME280;38802;50.198;19.796;2023-02-21T11:08:05;95554.08;;;7.25;92.10
52935;BME280;38802;50.198;19.796;2023-02-21T11:10:35;95561.48;;;7.15;92.40
52935;BME280;38802;50.198;19.796;2023-02-21T11:13:09;95559.49;;;7.10;92.69
52935;BME280;38802;50.198;19.796;2023-02-21T11:15:41;95559.76;;;7.00;92.99
52935;BME280;38802;50.198;19.796;2023-02-21T11:18:23;95568.44;;;6.97;93.21
52935;BME280;38802;50.198;19.796;2023-02-21T11:20:52;95567.58;;;6.90;93.52
52935;BME280;38802;50.198;19.796;2023-02-21T11:23:26;95573.70;;;6.87;93.84
52935;BME280;38802;50.198;19.796;2023-02-21T11:26:10;95564.77;;;6.86;94.12
52935;BME280;38802;50.198;19.796;2023-02-21T11:28:41;95568.37;;;6.84;94.24
52935;BME280;38802;50.198;19.796;2023-02-21T11:31:36;95565.77;;;6.83;94.12
52935;BME280;38802;50.198;19.796;2023-02-21T11:34:06;95568.68;;;6.81;94.12
52935;BME280;38802;50.198;19.796;2023-02-21T11:36:38;95563.72;;;6.78;94.10
52935;BME280;38802;50.198;19.796;2023-02-21T11:44:24;95564.02;;;6.79;94.48
52935;BME280;38802;50.198;19.796;2023-02-21T11:50:21;95573.84;;;6.72;94.69
52935;BME280;38802;50.198;19.796;2023-02-21T11:52:58;95573.28;;;6.73;94.78
52935;BME280;38802;50.198;19.796;2023-02-21T11:55:28;95568.56;;;6.65;94.79
52935;BME280;38802;50.198;19.796;2023-02-21T11:58:22;95572.27;;;6.66;95.09
52935;BME280;38802;50.198;19.796;2023-02-21T12:01:29;95575.90;;;6.68;95.20
52935;BME280;38802;50.198;19.796;2023-02-21T12:43:26;95576.33;;;6.51;95.57
52935;BME280;38802;50.198;19.796;2023-02-21T12:46:25;95574.39;;;6.51;96.03
52935;BME280;38802;50.198;19.796;2023-02-21T12:49:06;95575.39;;;6.63;96.61
52935;BME280;38802;50.198;19.796;2023-02-21T12:51:41;95571.27;;;6.74;96.79
52935;BME280;38802;50.198;19.796;2023-02-21T12:54:35;95569.38;;;6.87;96.97
52935;BME280;38802;50.198;19.796;2023-02-21T12:57:19;95565.16;;;7.04;96.92
52935;BME280;38802;50.198;19.796;2023-02-21T13:05:43;95566.48;;;7.13;95.25
52935;BME280;38802;50.198;19.796;2023-02-21T13:08:19;95565.02;;;7.14;94.49
52935;BME280;38802;50.198;19.796;2023-02-21T13:10:55;95563.05;;;7.17;93.96
52935;BME280;38802;50.198;19.796;2023-02-21T13:13:31;95567.95;;;7.16;93.84
52935;BME280;38802;50.198;19.796;2023-02-21T13:16:02;95567.81;;;7.16;93.46
52935;BME280;38802;50.198;19.796;2023-02-21T13:18:38;95567.56;;;7.15;92.96
52935;BME280;38802;50.198;19.796;2023-02-21T13:23:50;95574.23;;;7.11;92.38
52935;BME280;38802;50.198;19.796;2023-02-21T13:32:51;95568.64;;;7.28;92.02
52935;BME280;38802;50.198;19.796;2023-02-21T13:35:36;95568.46;;;7.34;91.61
52935;BME280;38802;50.198;19.796;2023-02-21T13:38:07;95571.52;;;7.36;91.66
52935;BME280;38802;50.198;19.796;2023-02-21T13:41:01;95569.95;;;7.44;91.07
52935;BME280;38802;50.198;19.796;2023-02-21T13:43:32;95575.02;;;7.47;90.70
52935;BME280;38802;50.198;19.796;2023-02-21T13:46:24;95571.85;;;7.50;90.65
52935;BME280;38802;50.198;19.796;2023-02-21T14:03:01;95584.34;;;7.53;88.89
52935;BME280;38802;50.198;19.796;2023-02-21T14:08:34;95589.58;;;7.51;89.11
52935;BME280;38802;50.198;19.796;2023-02-21T14:14:19;95593.30;;;7.52;88.78
52935;BME280;38802;50.198;19.796;2023-02-21T14:16:51;95597.98;;;7.54;88.83
52935;BME280;38802;50.198;19.796;2023-02-21T14:19:26;95592.89;;;7.59;88.80
52935;BME280;38802;50.198;19.796;2023-02-21T14:22:23;95594.77;;;7.59;88.99
52935;BME280;38802;50.198;19.796;2023-02-21T14:25:06;95603.80;;;7.59;89.15
52935;BME280;38802;50.198;19.796;2023-02-21T14:27:37;95611.09;;;7.58;88.90
52935;BME280;38802;50.198;19.796;2023-02-21T14:32:43;95608.98;;;7.54;89.33
52935;BME280;38802;50.198;19.796;2023-02-21T14:35:35;95606.59;;;7.56;88.96
52935;BME280;38802;50.198;19.796;2023-02-21T14:38:14;95619.63;;;7.51;89.11
52935;BME280;38802;50.198;19.796;2023-02-21T14:41:04;95629.29;;;7.43;89.12
52935;BME280;38802;50.198;19.796;2023-02-21T14:46:41;95630.73;;;7.35;89.14
52935;BME280;38802;50.198;19.796;2023-02-21T15:05:48;95638.20;;;7.15;88.81
52935;BME280;38802;50.198;19.796;2023-02-21T15:08:22;95639.77;;;7.10;88.69
52935;BME280;38802;50.198;19.796;2023-02-21T15:10:58;95639.63;;;7.10;88.81
52935;BME280;38802;50.198;19.796;2023-02-21T15:13:30;95638.63;;;7.09;88.87
52935;BME280;38802;50.198;19.796;2023-02-21T15:18:40;95640.05;;;7.11;89.14
52935;BME280;38802;50.198;19.796;2023-02-21T15:21:21;95637.39;;;7.16;89.18
52935;BME280;38802;50.198;19.796;2023-02-21T15:24:12;95642.22;;;7.19;89.09
52935;BME280;38802;50.198;19.796;2023-02-21T15:26:41;95644.86;;;7.20;89.04
52935;BME280;38802;50.198;19.796;2023-02-21T15:29:12;95647.50;;;7.19;88.79
52935;BME280;38802;50.198;19.796;2023-02-21T15:31:48;95644.13;;;7.16;88.77
52935;BME280;38802;50.198;19.796;2023-02-21T15:34:18;95644.91;;;7.17;88.41
52935;BME280;38802;50.198;19.796;2023-02-21T15:36:57;95645.97;;;7.17;87.31
52935;BME280;38802;50.198;19.796;2023-02-21T15:39:31;95647.23;;;7.12;87.32
52935;BME280;38802;50.198;19.796;2023-02-21T15:42:02;95646.73;;;7.09;86.83
52935;BME280;38802;50.198;19.796;2023-02-21T15:44:55;95647.52;;;7.06;86.50
52935;BME280;38802;50.198;19.796;2023-02-21T15:47:22;95646.23;;;7.03;85.98
52935;BME280;38802;50.198;19.796;2023-02-21T15:50:10;95648.14;;;7.00;85.69
52935;BME280;38802;50.198;19.796;2023-02-21T15:52:45;95656.22;;;6.99;85.48
52935;BME280;38802;50.198;19.796;2023-02-21T16:06:36;95646.54;;;6.97;85.14
52935;BME280;38802;50.198;19.796;2023-02-21T16:14:42;95671.61;;;6.93;84.58
52935;BME280;38802;50.198;19.796;2023-02-21T16:17:30;95672.82;;;6.93;84.63
52935;BME280;38802;50.198;19.796;2023-02-21T16:22:41;95677.55;;;6.93;84.36
52935;BME280;38802;50.198;19.796;2023-02-21T16:25:29;95683.69;;;6.89;84.36
52935;BME280;38802;50.198;19.796;2023-02-21T16:27:59;95681.14;;;6.86;84.58
52935;BME280;38802;50.198;19.796;2023-02-21T16:30:28;95690.48;;;6.86;84.44
52935;BME280;38802;50.198;19.796;2023-02-21T16:33:03;95688.39;;;6.86;83.75
52935;BME280;38802;50.198;19.796;2023-02-21T16:35:31;95691.72;;;6.86;83.37
52935;BME280;38802;50.198;19.796;2023-02-21T16:37:59;95697.43;;;6.81;83.09
52935;BME280;38802;50.198;19.796;2023-02-21T16:40:31;95705.06;;;6.81;83.01